MSN weather

Dane County Regional Truax Field
Madison, Wisconsin, United States

Public forecast

Using degrees Fahrenheit for public forecast. Weather courtesy of forecast.io.

Current aviation weather report (METAR) for Dane County Regional Truax Field

Retrieved 2019/10/19 05:53 UTC (1 hour ago):

KMSN 190553Z AUTO 20007KT 10SM SCT120 10/04 A2984 RMK AO2 SLP105 T01000039 10122 20094 401500006 55006

Aviation forecast (TAF) for Dane County Regional Truax Field

Retrieved 2019/10/19 06:22 UTC (35 minutes ago):

TAF KMSN 190520Z 1906/2006 17007KT P6SM FEW250 WS015/20043KT FM191300 20009KT P6SM BKN200 FM192200 VRB04KT 6SM -SHRA OVC030 FM200400 00000KT 3SM BR BKN018